createdAt,value
2023-05-22T00:05:01.843Z,8.69
2023-05-22T00:10:09.158Z,8.06
2023-05-22T00:15:16.431Z,6.74
2023-05-22T00:20:23.650Z,7.05
2023-05-22T00:25:31.036Z,6.05
2023-05-22T00:30:38.751Z,5.76
2023-05-22T00:35:45.209Z,6.65
2023-05-22T00:40:52.547Z,6.24
2023-05-22T00:46:00.034Z,8.65
2023-05-22T00:51:07.272Z,7.74
2023-05-22T00:56:14.834Z,7.71
2023-05-22T01:01:22.188Z,11.87
2023-05-22T01:06:29.658Z,6.00
2023-05-22T01:11:37.023Z,6.64
2023-05-22T01:16:44.547Z,7.42
2023-05-22T01:21:51.793Z,6.75
2023-05-22T01:26:59.350Z,7.21
2023-05-22T01:32:06.694Z,7.67
2023-05-22T01:37:14.159Z,5.71
2023-05-22T01:42:21.538Z,7.41
2023-05-22T01:47:29.089Z,8.29
2023-05-22T01:52:36.244Z,7.16
2023-05-22T01:57:43.641Z,7.62
2023-05-22T02:02:50.517Z,9.09
2023-05-22T02:07:57.510Z,7.56
2023-05-22T02:13:04.795Z,9.45
2023-05-22T02:18:12.320Z,6.32
2023-05-22T02:23:19.478Z,7.46
2023-05-22T02:28:26.896Z,7.70
2023-05-22T02:33:34.304Z,8.82
2023-05-22T02:38:41.705Z,8.32
2023-05-22T02:43:48.982Z,8.34
2023-05-22T02:48:56.337Z,6.76
2023-05-22T02:54:03.628Z,8.00
2023-05-22T02:59:11.140Z,7.47
2023-05-22T03:04:18.391Z,9.70
2023-05-22T03:09:25.810Z,7.86
2023-05-22T03:14:33.167Z,7.31
2023-05-22T03:19:40.641Z,7.76
2023-05-22T03:24:47.882Z,7.17
2023-05-22T03:29:55.253Z,7.89
2023-05-22T03:35:02.623Z,7.09
2023-05-22T03:40:10.100Z,10.32
2023-05-22T03:45:17.532Z,6.68
2023-05-22T03:50:24.920Z,7.80
2023-05-22T03:55:32.164Z,6.40
2023-05-22T04:00:39.746Z,7.04
2023-05-22T04:05:46.814Z,8.36
2023-05-22T04:10:54.167Z,10.05
2023-05-22T04:16:01.507Z,6.75
2023-05-22T04:21:08.885Z,8.75
2023-05-22T04:26:16.193Z,7.50
2023-05-22T04:31:23.696Z,7.03
2023-05-22T04:36:31.034Z,7.84
2023-05-22T04:41:38.483Z,8.13
2023-05-22T04:46:45.860Z,8.62
2023-05-22T04:51:53.134Z,8.97
2023-05-22T04:57:00.376Z,11.47
2023-05-22T05:02:07.781Z,8.48
2023-05-22T05:07:15.082Z,7.74
2023-05-22T05:12:22.416Z,10.16
2023-05-22T05:17:29.722Z,7.87
2023-05-22T05:22:37.102Z,7.30
2023-05-22T05:27:44.441Z,8.02
2023-05-22T05:32:51.835Z,8.68
2023-05-22T05:37:58.993Z,7.49
2023-05-22T05:43:08.009Z,10.91
2023-05-22T05:48:13.210Z,8.23
2023-05-22T05:53:20.740Z,13.37
2023-05-22T05:58:28.070Z,9.79
2023-05-22T06:03:35.611Z,9.23
2023-05-22T06:08:42.598Z,13.47
2023-05-22T06:13:49.944Z,14.86
2023-05-22T06:18:57.410Z,16.81
2023-05-22T06:24:04.683Z,14.03
2023-05-22T06:29:11.931Z,10.20
2023-05-22T06:34:19.548Z,8.30
2023-05-22T06:39:26.628Z,10.00
2023-05-22T06:44:34.037Z,10.19
2023-05-22T06:49:41.395Z,9.75
2023-05-22T06:54:49.116Z,12.43
2023-05-22T06:59:56.425Z,8.58
2023-05-22T07:05:03.977Z,9.14
2023-05-22T07:10:11.230Z,6.39
2023-05-22T07:15:18.542Z,8.50
2023-05-22T07:20:25.803Z,7.38
2023-05-22T07:25:34.270Z,7.19
2023-05-22T07:30:41.676Z,7.01
2023-05-22T07:35:49.138Z,8.06
2023-05-22T07:40:56.368Z,7.56
2023-05-22T07:46:04.176Z,8.38
2023-05-22T07:51:11.348Z,5.96
2023-05-22T07:56:19.174Z,6.35
2023-05-22T08:01:26.620Z,6.11
2023-05-22T08:06:34.329Z,5.14
2023-05-22T08:11:41.580Z,6.29
2023-05-22T08:16:48.940Z,6.25
2023-05-22T08:21:56.223Z,11.00
2023-05-22T08:27:03.897Z,6.87
2023-05-22T08:32:11.115Z,6.46
2023-05-22T08:37:18.473Z,6.31
2023-05-22T08:42:25.960Z,5.49
2023-05-22T08:47:33.710Z,7.42
2023-05-22T08:52:40.967Z,6.23
2023-05-22T08:57:48.304Z,5.79
2023-05-22T09:02:55.622Z,6.24
2023-05-22T09:08:16.054Z,5.88
2023-05-22T09:13:09.932Z,7.21
2023-05-22T09:18:17.280Z,5.77
2023-05-22T09:23:24.499Z,6.44
2023-05-22T09:28:32.014Z,3.65
2023-05-22T09:33:39.541Z,4.04
2023-05-22T09:38:46.965Z,4.98
2023-05-22T09:43:54.138Z,3.42
2023-05-22T09:49:01.692Z,5.39
2023-05-22T09:54:08.919Z,2.24
2023-05-22T09:59:16.292Z,2.89
2023-05-22T10:04:23.616Z,2.43
2023-05-22T10:09:31.262Z,4.28
2023-05-22T10:14:37.808Z,3.51
2023-05-22T10:19:46.815Z,4.19
2023-05-22T10:24:52.155Z,3.04
2023-05-22T10:29:59.548Z,3.33
2023-05-22T10:35:06.778Z,4.14
2023-05-22T10:40:14.113Z,4.13
2023-05-22T10:45:21.362Z,3.34
2023-05-22T10:50:28.903Z,3.19
2023-05-22T10:55:36.106Z,3.95
2023-05-22T11:00:43.625Z,5.48
2023-05-22T11:05:50.832Z,4.37
2023-05-22T11:10:58.175Z,2.57
2023-05-22T11:16:05.464Z,5.04
2023-05-22T11:21:12.873Z,5.19
2023-05-22T11:26:20.203Z,3.30
2023-05-22T11:31:27.651Z,4.01
2023-05-22T11:36:34.934Z,4.26
2023-05-22T11:41:42.358Z,3.60
2023-05-22T11:46:49.709Z,2.95
2023-05-22T11:51:56.961Z,2.95
2023-05-22T11:57:04.193Z,2.82
2023-05-22T12:02:11.566Z,3.95
2023-05-22T12:07:18.790Z,2.87
2023-05-22T12:12:26.323Z,3.98
2023-05-22T12:17:33.726Z,3.64
2023-05-22T12:22:41.159Z,3.99
2023-05-22T12:27:48.352Z,4.04
2023-05-22T12:32:55.745Z,4.50
2023-05-22T12:38:02.947Z,3.28
2023-05-22T12:48:14.835Z,4.38
2023-05-22T12:58:26.599Z,4.02
2023-05-22T13:03:33.940Z,5.51
2023-05-22T13:08:41.272Z,4.65
2023-05-22T13:13:48.727Z,4.53
2023-05-22T13:18:56.095Z,5.39
2023-05-22T13:24:13.174Z,5.39
2023-05-22T13:29:10.481Z,5.55
2023-05-22T13:34:18.097Z,5.06
2023-05-22T13:39:25.200Z,4.71
2023-05-22T13:44:32.510Z,4.69
2023-05-22T13:49:39.717Z,4.81
2023-05-22T13:54:47.020Z,6.66
2023-05-22T13:59:54.344Z,6.67
2023-05-22T14:05:01.758Z,6.64
2023-05-22T14:10:09.004Z,7.73
2023-05-22T14:15:16.373Z,7.18
2023-05-22T14:20:23.668Z,6.02
2023-05-22T14:25:31.038Z,8.79
2023-05-22T14:30:38.403Z,6.25
2023-05-22T14:35:45.821Z,6.18
2023-05-22T14:40:53.044Z,6.40
2023-05-22T14:46:00.638Z,6.51
2023-05-22T14:51:07.871Z,6.52
2023-05-22T14:56:15.373Z,6.72
2023-05-22T15:01:22.753Z,7.27
2023-05-22T15:06:30.141Z,6.99
2023-05-22T15:11:37.374Z,7.45
2023-05-22T15:16:44.856Z,6.80
2023-05-22T15:21:53.236Z,6.77
2023-05-22T15:27:00.575Z,5.05
2023-05-22T15:32:07.893Z,6.18
2023-05-22T15:37:15.118Z,6.03
2023-05-22T15:42:22.315Z,5.65
2023-05-22T15:47:29.724Z,6.39
2023-05-22T15:52:37.007Z,6.70
2023-05-22T15:57:44.502Z,4.47
2023-05-22T16:02:51.788Z,5.48
2023-05-22T16:07:59.115Z,4.75
2023-05-22T16:13:06.376Z,6.78
2023-05-22T16:18:13.689Z,7.99
2023-05-22T16:23:21.066Z,6.95
2023-05-22T16:28:28.586Z,5.93
2023-05-22T16:33:35.902Z,7.51
2023-05-22T16:38:43.255Z,4.55
2023-05-22T16:43:51.246Z,6.61
2023-05-22T16:48:58.709Z,5.53
2023-05-22T16:54:06.011Z,5.46
2023-05-22T16:59:13.528Z,5.21
2023-05-22T17:04:20.305Z,4.68
2023-05-22T17:09:27.737Z,18.02
2023-05-22T17:14:34.978Z,7.54
2023-05-22T17:19:42.456Z,6.22
2023-05-22T17:24:49.707Z,9.62
2023-05-22T17:29:57.187Z,6.23
2023-05-22T17:35:04.426Z,7.24
2023-05-22T17:40:11.798Z,4.58
2023-05-22T17:45:19.087Z,6.38
2023-05-22T17:50:26.521Z,7.43
2023-05-22T17:55:33.737Z,7.91
2023-05-22T18:00:41.422Z,6.61
2023-05-22T18:05:48.583Z,5.73
2023-05-22T18:10:56.110Z,7.67
2023-05-22T18:16:03.378Z,7.34
2023-05-22T18:21:10.609Z,6.60
2023-05-22T18:26:17.856Z,6.53
2023-05-22T18:31:25.224Z,6.86
2023-05-22T18:41:37.067Z,5.95
2023-05-22T18:46:44.418Z,7.03
2023-05-22T18:51:51.895Z,7.68
2023-05-22T18:56:59.277Z,7.64
2023-05-22T19:02:06.825Z,6.86
2023-05-22T19:07:14.227Z,8.05
2023-05-22T19:12:21.615Z,7.95
2023-05-22T19:17:29.186Z,6.66
2023-05-22T19:22:36.698Z,9.12
2023-05-22T19:27:44.076Z,8.28
2023-05-22T19:32:51.478Z,7.22
2023-05-22T19:37:58.689Z,9.54
2023-05-22T19:43:06.133Z,8.81
2023-05-22T19:48:13.360Z,8.61
2023-05-22T19:53:20.751Z,9.43
2023-05-22T19:58:27.968Z,7.82
2023-05-22T20:03:35.540Z,12.31
2023-05-22T20:08:42.735Z,9.47
2023-05-22T20:18:54.613Z,10.04
2023-05-22T20:24:02.125Z,10.12
2023-05-22T20:29:09.430Z,9.64
2023-05-22T20:34:16.961Z,11.56
2023-05-22T20:39:24.297Z,9.77
2023-05-22T20:44:31.744Z,10.88
2023-05-22T20:49:38.947Z,10.17
2023-05-22T20:54:46.337Z,11.01
2023-05-22T20:59:53.603Z,12.21
2023-05-22T21:05:01.030Z,15.16
2023-05-22T21:10:08.304Z,13.02
2023-05-22T21:15:15.641Z,11.57
2023-05-22T21:20:22.895Z,10.69
2023-05-22T21:25:30.337Z,10.87
2023-05-22T21:30:37.609Z,11.61
2023-05-22T21:35:44.916Z,11.59
2023-05-22T21:40:52.233Z,11.49
2023-05-22T21:45:59.632Z,11.07
2023-05-22T21:51:06.880Z,12.85
2023-05-22T21:56:14.386Z,13.11
2023-05-22T22:01:21.628Z,15.31
2023-05-22T22:06:29.056Z,11.78
2023-05-22T22:11:36.396Z,14.22
2023-05-22T22:16:43.798Z,13.25
2023-05-22T22:21:51.060Z,11.98
2023-05-22T22:26:58.371Z,14.39
2023-05-22T22:32:05.720Z,13.31
2023-05-22T22:37:13.098Z,13.36
2023-05-22T22:42:20.310Z,15.18
2023-05-22T22:47:27.650Z,13.71
2023-05-22T22:52:34.895Z,15.11
2023-05-22T22:57:42.331Z,13.68
2023-05-22T23:02:49.673Z,16.80
2023-05-22T23:07:57.410Z,14.92
2023-05-22T23:13:04.741Z,15.25
2023-05-22T23:18:12.213Z,15.61
2023-05-22T23:23:19.349Z,18.43
2023-05-22T23:28:27.132Z,13.30
2023-05-22T23:33:34.484Z,15.38
2023-05-22T23:38:41.982Z,14.30
2023-05-22T23:43:49.285Z,14.50
2023-05-22T23:48:56.902Z,16.89
2023-05-22T23:54:04.256Z,13.81
2023-05-22T23:59:11.746Z,17.08
